Time;durP1;ratioP1;P1;durP2;ratioP2;P2;SDS_P1;SDS_P2;PMS_P1;PMS_P2;Temp;Humidity;BMP_temperature;BMP_pressure;BME280_temperature;BME280_humidity;BME280_pressure;Samples;Min_cycle;Max_cycle;Signal;HPM_P1;HPM_P2
2023/05/26 00:01:02;;;;;;;8.48;3.70;;;;;;;;;;5007506;28;20022;-66
2023/05/26 00:03:27;;;;;;;8.50;3.63;;;;;;;;;;5006909;28;20410;-65
2023/05/26 00:05:54;;;;;;;9.07;3.40;;;;;;;;;;5003925;28;20018;-65
2023/05/26 00:08:19;;;;;;;;;;;;;;;;;;4997760;28;20034;-66
2023/05/26 00:10:44;;;;;;;7.82;3.80;;;;;;;;;;4996896;28;19920;-66
2023/05/26 00:13:09;;;;;;;9.47;3.67;;;;;;;;;;4999001;28;20034;-66
2023/05/26 00:15:34;;;;;;;10.60;4.27;;;;;;;;;;4998782;28;20021;-66
2023/05/26 00:18:01;;;;;;;10.00;3.90;;;;;;;;;;5003041;28;20056;-65
2023/05/26 00:20:26;;;;;;;8.55;3.92;;;;;;;;;;5003150;28;20045;-67
2023/05/26 00:22:51;;;;;;;12.40;4.30;;;;;;;;;;5005512;28;20363;-65
2023/05/26 00:25:16;;;;;;;9.97;3.87;;;;;;;;;;5008175;28;20022;-65
2023/05/26 00:27:42;;;;;;;9.23;3.60;;;;;;;;;;5003394;28;20033;-66
2023/05/26 00:30:07;;;;;;;10.05;4.22;;;;;;;;;;4993489;28;20393;-66
2023/05/26 00:32:33;;;;;;;8.13;3.90;;;;;;;;;;4996620;28;20169;-67
2023/05/26 00:34:58;;;;;;;10.73;3.70;;;;;;;;;;5003238;28;20063;-67
2023/05/26 00:37:23;;;;;;;8.30;3.78;;;;;;;;;;5005923;28;20041;-67
2023/05/26 00:39:48;;;;;;;9.07;4.00;;;;;;;;;;5009254;28;20516;-65
2023/05/26 00:42:13;;;;;;;10.60;4.18;;;;;;;;;;4998018;28;20014;-67
2023/05/26 00:44:38;;;;;;;9.82;3.72;;;;;;;;;;5001713;28;20030;-66
2023/05/26 00:47:04;;;;;;;9.43;3.60;;;;;;;;;;5008511;28;20025;-66
2023/05/26 00:49:29;;;;;;;9.40;4.18;;;;;;;;;;4999997;28;20022;-66
2023/05/26 00:51:54;;;;;;;9.15;4.35;;;;;;;;;;5005083;28;20029;-68
2023/05/26 00:54:20;;;;;;;7.55;3.78;;;;;;;;;;5001587;28;20507;-67
2023/05/26 00:56:45;;;;;;;12.15;4.65;;;;;;;;;;5001129;28;20502;-65
2023/05/26 00:59:11;;;;;;;11.48;4.28;;;;;;;;;;4992383;28;20026;-67
2023/05/26 01:01:37;;;;;;;9.50;3.97;;;;;;;;;;4999486;28;20509;-67
2023/05/26 01:04:02;;;;;;;9.18;3.75;;;;;;;;;;5007740;28;20030;-67
2023/05/26 01:06:27;;;;;;;11.07;4.40;;;;;;;;;;4999740;28;20561;-67
2023/05/26 01:08:53;;;;;;;10.55;4.43;;;;;;;;;;5004177;28;20101;-67
2023/05/26 01:11:22;;;;;;;9.25;3.97;;;;;;;;;;4994833;28;20022;-67
2023/05/26 01:13:56;;;;;;;8.63;4.13;;;;;;;;;;5004046;28;20393;-67
2023/05/26 01:16:24;;;;;;;11.43;4.35;;;;;;;;;;5008067;28;20022;-67
2023/05/26 01:19:00;;;;;;;10.40;4.47;;;;;;;;;;4995237;28;20021;-67
2023/05/26 01:21:27;;;;;;;9.18;4.30;;;;;;;;;;5004182;28;20040;-66
2023/05/26 01:24:12;;;;;;;12.82;4.55;;;;;;;;;;5008358;28;20034;-67
2023/05/26 01:26:47;;;;;;;9.55;4.18;;;;;;;;;;5003623;28;20026;-66
2023/05/26 01:29:14;;;;;;;11.40;4.47;;;;;;;;;;5001951;28;20022;-66
2023/05/26 01:31:39;;;;;;;9.05;4.35;;;;;;;;;;5002036;28;20504;-66
2023/05/26 01:34:04;;;;;;;10.53;4.40;;;;;;;;;;5004100;28;20026;-66
2023/05/26 01:36:30;;;;;;;9.65;3.92;;;;;;;;;;5007440;28;20429;-65
2023/05/26 01:38:55;;;;;;;10.20;3.93;;;;;;;;;;5001656;28;20021;-66
2023/05/26 01:41:29;;;;;;;11.77;4.77;;;;;;;;;;5006821;28;20421;-66
2023/05/26 01:44:10;;;;;;;8.75;4.30;;;;;;;;;;5003966;28;20619;-65
2023/05/26 01:46:43;;;;;;;10.75;4.60;;;;;;;;;;5004883;28;20083;-66
2023/05/26 01:49:09;;;;;;;11.13;4.63;;;;;;;;;;5006109;28;20026;-67
2023/05/26 01:51:36;;;;;;;10.95;4.30;;;;;;;;;;5002645;28;20037;-65
2023/05/26 01:54:04;;;;;;;10.68;4.55;;;;;;;;;;5008784;28;20103;-65
2023/05/26 01:56:31;;;;;;;10.70;4.47;;;;;;;;;;5004476;28;21799;-67
2023/05/26 01:58:57;;;;;;;10.77;4.47;;;;;;;;;;4995848;28;20026;-65
2023/05/26 02:01:42;;;;;;;12.60;4.65;;;;;;;;;;5006116;28;20030;-67
2023/05/26 02:04:09;;;;;;;9.27;4.28;;;;;;;;;;5008362;28;20422;-64
2023/05/26 02:06:35;;;;;;;10.98;4.45;;;;;;;;;;5003403;28;20032;-66
2023/05/26 02:09:00;;;;;;;12.88;4.65;;;;;;;;;;4999995;28;20025;-66
2023/05/26 02:11:25;;;;;;;10.20;4.20;;;;;;;;;;5005850;28;20034;-66
2023/05/26 02:13:51;;;;;;;11.15;4.75;;;;;;;;;;5000966;28;20032;-65
2023/05/26 02:16:16;;;;;;;10.27;4.37;;;;;;;;;;5001147;28;20018;-66
2023/05/26 02:18:42;;;;;;;11.70;4.25;;;;;;;;;;5004837;28;20030;-66
2023/05/26 02:21:07;;;;;;;8.98;4.47;;;;;;;;;;5005576;28;20498;-66
2023/05/26 02:23:32;;;;;;;10.40;4.50;;;;;;;;;;5005377;28;20051;-66
2023/05/26 02:25:57;;;;;;;9.55;4.43;;;;;;;;;;5003606;28;20110;-65
2023/05/26 02:28:22;;;;;;;9.43;4.60;;;;;;;;;;4990542;28;20509;-66
2023/05/26 02:30:47;;;;;;;10.23;4.57;;;;;;;;;;5003204;28;20037;-67
2023/05/26 02:33:13;;;;;;;10.33;4.60;;;;;;;;;;5006418;28;20041;-67
2023/05/26 02:35:38;;;;;;;11.70;4.73;;;;;;;;;;5006560;28;20398;-66
2023/05/26 02:38:03;;;;;;;11.10;4.65;;;;;;;;;;4993812;28;20452;-67
2023/05/26 02:40:28;;;;;;;11.75;4.60;;;;;;;;;;5008985;28;20060;-67
2023/05/26 02:42:53;;;;;;;13.60;5.23;;;;;;;;;;5009811;28;20508;-66
2023/05/26 02:45:19;;;;;;;14.15;4.95;;;;;;;;;;5010154;28;20014;-66
2023/05/26 02:47:44;;;;;;;11.20;4.68;;;;;;;;;;5003467;28;20069;-65
2023/05/26 02:50:09;;;;;;;10.30;4.67;;;;;;;;;;5005479;28;20045;-67
2023/05/26 02:52:34;;;;;;;10.50;4.95;;;;;;;;;;5011567;28;20021;-66
2023/05/26 02:54:59;;;;;;;11.02;4.72;;;;;;;;;;5007423;28;20029;-68
2023/05/26 02:57:25;;;;;;;15.00;5.30;;;;;;;;;;5012967;28;20390;-66
2023/05/26 02:59:50;;;;;;;11.77;4.60;;;;;;;;;;5005170;28;20653;-67
2023/05/26 03:02:15;;;;;;;10.23;4.82;;;;;;;;;;5001457;28;20029;-66
2023/05/26 03:04:40;;;;;;;10.93;4.75;;;;;;;;;;5008718;28;20253;-66
2023/05/26 03:07:07;;;;;;;9.80;4.90;;;;;;;;;;5008029;28;20029;-65
2023/05/26 03:09:32;;;;;;;11.90;5.00;;;;;;;;;;5000141;28;20108;-66
2023/05/26 03:11:58;;;;;;;11.82;4.85;;;;;;;;;;5010142;28;20065;-66
2023/05/26 03:14:23;;;;;;;11.23;4.57;;;;;;;;;;5010937;28;20393;-65
2023/05/26 03:16:51;;;;;;;11.18;5.40;;;;;;;;;;5011918;28;20120;-65
2023/05/26 03:19:16;;;;;;;11.45;4.90;;;;;;;;;;5004684;28;20037;-67
2023/05/26 03:21:41;;;;;;;9.75;5.03;;;;;;;;;;5006244;28;20399;-67
2023/05/26 03:24:07;;;;;;;9.97;4.93;;;;;;;;;;5001931;28;20030;-67
2023/05/26 03:26:32;;;;;;;13.30;4.97;;;;;;;;;;4999757;28;20053;-66
2023/05/26 03:28:57;;;;;;;10.50;5.10;;;;;;;;;;5005608;28;20019;-67
2023/05/26 03:31:22;;;;;;;11.77;4.97;;;;;;;;;;5004430;28;20069;-67
2023/05/26 03:33:47;;;;;;;11.43;5.07;;;;;;;;;;5007939;28;20537;-67
2023/05/26 03:36:13;;;;;;;12.38;4.85;;;;;;;;;;5009954;28;20036;-67
2023/05/26 03:38:38;;;;;;;9.20;4.90;;;;;;;;;;4999551;28;20037;-67
2023/05/26 03:41:04;;;;;;;11.93;5.40;;;;;;;;;;4993041;28;20022;-67
2023/05/26 03:43:29;;;;;;;12.63;5.47;;;;;;;;;;4998111;28;20434;-67
2023/05/26 03:45:54;;;;;;;12.45;4.93;;;;;;;;;;4997130;28;20030;-65
2023/05/26 03:48:19;;;;;;;10.00;4.60;;;;;;;;;;5008037;28;20063;-65
2023/05/26 03:50:46;;;;;;;11.13;5.13;;;;;;;;;;5006587;28;20045;-66
2023/05/26 03:53:11;;;;;;;11.30;5.13;;;;;;;;;;5006729;28;20100;-67
2023/05/26 03:55:36;;;;;;;10.40;4.97;;;;;;;;;;5002156;28;20509;-67
2023/05/26 03:58:02;;;;;;;14.23;5.10;;;;;;;;;;5000767;28;20469;-66
2023/05/26 04:00:30;;;;;;;12.95;5.47;;;;;;;;;;5003222;28;20030;-66
2023/05/26 04:02:55;;;;;;;12.52;5.25;;;;;;;;;;5001008;28;20118;-67
2023/05/26 04:05:20;;;;;;;12.20;5.10;;;;;;;;;;5006247;28;20105;-67
2023/05/26 04:07:46;;;;;;;10.15;4.88;;;;;;;;;;5005706;28;20026;-67
2023/05/26 04:10:11;;;;;;;13.27;5.13;;;;;;;;;;5000320;28;20502;-67
2023/05/26 04:12:37;;;;;;;12.93;5.22;;;;;;;;;;4997766;28;20052;-66
2023/05/26 04:15:02;;;;;;;13.07;5.50;;;;;;;;;;5009162;28;20017;-66
2023/05/26 04:17:27;;;;;;;12.03;5.17;;;;;;;;;;4997338;28;20216;-66
2023/05/26 04:19:53;;;;;;;10.88;5.07;;;;;;;;;;5005221;28;20464;-66
2023/05/26 04:22:18;;;;;;;10.75;4.75;;;;;;;;;;5001770;28;20184;-67
2023/05/26 04:24:43;;;;;;;10.53;5.20;;;;;;;;;;5001220;28;20037;-66
2023/05/26 04:27:09;;;;;;;15.52;5.20;;;;;;;;;;4999714;28;20505;-67
2023/05/26 04:29:34;;;;;;;11.00;5.05;;;;;;;;;;5004592;28;20474;-67
2023/05/26 04:32:00;;;;;;;12.57;5.13;;;;;;;;;;5007241;28;20076;-66
2023/05/26 04:34:25;;;;;;;12.27;5.20;;;;;;;;;;4999937;28;20029;-66
2023/05/26 04:36:51;;;;;;;11.02;4.68;;;;;;;;;;4997734;28;20572;-66
2023/05/26 04:39:16;;;;;;;13.07;5.27;;;;;;;;;;4996032;28;20034;-66
2023/05/26 04:41:43;;;;;;;13.10;5.07;;;;;;;;;;5001652;28;20022;-66
2023/05/26 04:44:08;;;;;;;;;;;;;;;;;;5005991;28;20033;-66
2023/05/26 04:46:37;;;;;;;11.23;4.85;;;;;;;;;;5000889;28;19913;-66
2023/05/26 04:49:03;;;;;;;10.02;4.53;;;;;;;;;;5004680;28;20033;-66
2023/05/26 04:51:28;;;;;;;10.68;5.00;;;;;;;;;;5000811;28;20030;-66
2023/05/26 04:53:54;;;;;;;14.15;5.10;;;;;;;;;;4998494;28;20083;-66
2023/05/26 04:56:19;;;;;;;13.33;5.27;;;;;;;;;;5003129;28;20394;-66
2023/05/26 04:58:44;;;;;;;10.57;5.05;;;;;;;;;;5003957;28;20415;-65
2023/05/26 05:01:09;;;;;;;11.77;4.90;;;;;;;;;;4998636;28;20014;-66
2023/05/26 05:03:36;;;;;;;12.02;5.65;;;;;;;;;;5004624;28;20056;-65
2023/05/26 05:06:01;;;;;;;11.63;4.97;;;;;;;;;;5002654;28;20026;-65
2023/05/26 05:08:26;;;;;;;11.95;4.82;;;;;;;;;;5001128;28;20034;-66
2023/05/26 05:10:52;;;;;;;10.98;4.70;;;;;;;;;;4999615;28;20038;-66
2023/05/26 05:13:17;;;;;;;11.03;4.70;;;;;;;;;;4996726;28;20022;-66
2023/05/26 05:15:42;;;;;;;12.15;5.35;;;;;;;;;;4996082;28;20057;-66
2023/05/26 05:18:07;;;;;;;14.63;5.80;;;;;;;;;;4997817;28;20037;-66
2023/05/26 05:20:32;;;;;;;11.33;4.70;;;;;;;;;;5003081;28;20026;-66
2023/05/26 05:22:57;;;;;;;12.23;5.15;;;;;;;;;;5008668;28;20026;-66
2023/05/26 05:25:23;;;;;;;13.13;5.20;;;;;;;;;;5006112;28;20446;-66
2023/05/26 05:27:48;;;;;;;9.07;4.70;;;;;;;;;;5009241;28;20114;-65
2023/05/26 05:30:14;;;;;;;13.52;5.30;;;;;;;;;;5028875;28;20068;-66
2023/05/26 05:32:39;;;;;;;11.75;5.13;;;;;;;;;;5031268;28;20045;-66
2023/05/26 05:35:04;;;;;;;10.90;5.15;;;;;;;;;;5031595;28;20396;-66
2023/05/26 05:37:29;;;;;;;12.32;4.97;;;;;;;;;;5030798;28;20033;-65
2023/05/26 05:39:55;;;;;;;8.97;4.63;;;;;;;;;;5018485;28;20022;-67
2023/05/26 05:42:21;;;;;;;11.38;5.53;;;;;;;;;;5010632;28;20018;-66
2023/05/26 05:44:46;;;;;;;12.75;5.13;;;;;;;;;;4996120;28;20033;-66
2023/05/26 05:47:12;;;;;;;12.27;5.90;;;;;;;;;;4991167;28;20410;-65
2023/05/26 05:49:37;;;;;;;14.55;5.65;;;;;;;;;;4996661;28;20026;-65
2023/05/26 05:52:02;;;;;;;11.45;5.45;;;;;;;;;;5005784;28;20030;-65
2023/05/26 05:54:27;;;;;;;11.20;5.50;;;;;;;;;;5010144;28;20184;-66
2023/05/26 05:56:52;;;;;;;12.35;5.63;;;;;;;;;;5010785;28;20528;-66
2023/05/26 05:59:17;;;;;;;11.43;5.13;;;;;;;;;;5009660;28;20107;-66
2023/05/26 06:01:42;;;;;;;14.03;5.60;;;;;;;;;;5010460;28;20022;-65
2023/05/26 06:04:08;;;;;;;13.88;5.57;;;;;;;;;;5006398;28;20061;-66
2023/05/26 06:06:33;;;;;;;13.95;5.85;;;;;;;;;;5005405;28;20022;-66
2023/05/26 06:08:58;;;;;;;15.35;5.88;;;;;;;;;;4998139;28;20026;-66
2023/05/26 06:11:23;;;;;;;12.25;5.85;;;;;;;;;;5003433;28;20089;-66
2023/05/26 06:13:48;;;;;;;15.13;6.30;;;;;;;;;;4998991;28;20083;-66
2023/05/26 06:16:13;;;;;;;10.33;5.43;;;;;;;;;;5005976;28;20389;-66
2023/05/26 06:18:39;;;;;;;16.10;5.90;;;;;;;;;;5003130;28;20066;-66
2023/05/26 06:21:04;;;;;;;12.20;5.30;;;;;;;;;;5009740;28;20104;-65
2023/05/26 06:23:29;;;;;;;12.37;5.57;;;;;;;;;;5002940;28;20438;-65
2023/05/26 06:25:54;;;;;;;11.23;5.23;;;;;;;;;;5009536;28;20363;-65
2023/05/26 06:28:20;;;;;;;13.27;5.50;;;;;;;;;;4994332;28;20848;-66
2023/05/26 06:30:45;;;;;;;11.77;5.77;;;;;;;;;;4994140;28;20023;-66
2023/05/26 06:33:10;;;;;;;11.68;5.22;;;;;;;;;;4994364;28;20436;-65
2023/05/26 06:35:35;;;;;;;12.68;5.95;;;;;;;;;;5004240;28;20022;-66
2023/05/26 06:38:00;;;;;;;15.77;6.20;;;;;;;;;;4997634;28;20050;-65
2023/05/26 06:40:25;;;;;;;14.90;5.67;;;;;;;;;;4993610;28;20022;-66
2023/05/26 06:42:50;;;;;;;14.63;5.95;;;;;;;;;;5012686;28;20168;-66
2023/05/26 06:45:16;;;;;;;10.87;5.57;;;;;;;;;;5002663;28;20398;-65
2023/05/26 06:47:41;;;;;;;13.13;6.27;;;;;;;;;;5008874;28;20044;-66
2023/05/26 06:50:06;;;;;;;10.60;5.37;;;;;;;;;;5009367;28;20389;-65
2023/05/26 06:52:31;;;;;;;13.63;6.28;;;;;;;;;;5013592;28;20109;-65
2023/05/26 06:54:56;;;;;;;11.50;5.93;;;;;;;;;;5013293;28;20497;-65
2023/05/26 06:57:22;;;;;;;13.65;5.75;;;;;;;;;;5013435;28;20026;-65
2023/05/26 06:59:47;;;;;;;13.55;6.13;;;;;;;;;;5012683;28;20029;-66
2023/05/26 07:02:12;;;;;;;12.95;5.65;;;;;;;;;;5008936;28;20476;-65
2023/05/26 07:04:37;;;;;;;21.58;6.80;;;;;;;;;;5012601;28;20144;-66
2023/05/26 07:07:02;;;;;;;10.53;6.23;;;;;;;;;;5003075;28;20038;-66
2023/05/26 07:09:27;;;;;;;13.17;6.33;;;;;;;;;;4993156;28;20394;-66
2023/05/26 07:11:53;;;;;;;10.88;5.63;;;;;;;;;;4999607;28;20033;-65
2023/05/26 07:14:18;;;;;;;11.73;5.95;;;;;;;;;;4997929;28;20025;-66
2023/05/26 07:16:43;;;;;;;14.35;5.78;;;;;;;;;;5009551;28;20029;-65
2023/05/26 07:19:08;;;;;;;13.82;6.20;;;;;;;;;;5011387;28;20495;-66
2023/05/26 07:21:34;;;;;;;14.43;6.55;;;;;;;;;;5013241;28;20026;-66
2023/05/26 07:23:59;;;;;;;13.35;5.65;;;;;;;;;;5013018;28;20111;-65
2023/05/26 07:26:24;;;;;;;13.40;5.90;;;;;;;;;;5011217;28;20386;-66
2023/05/26 07:28:50;;;;;;;12.80;5.80;;;;;;;;;;5012891;28;20057;-65
2023/05/26 07:31:15;;;;;;;11.55;5.53;;;;;;;;;;4993829;28;20453;-66
2023/05/26 07:33:40;;;;;;;13.03;5.67;;;;;;;;;;4993784;28;20018;-65
2023/05/26 07:36:05;;;;;;;13.25;5.63;;;;;;;;;;4993736;28;20073;-65
2023/05/26 07:38:30;;;;;;;13.43;5.63;;;;;;;;;;4993541;28;20486;-65
2023/05/26 07:40:55;;;;;;;12.90;6.10;;;;;;;;;;5005019;28;20022;-66
2023/05/26 07:43:21;;;;;;;12.10;5.60;;;;;;;;;;5006886;28;20029;-66
2023/05/26 07:45:46;;;;;;;12.75;5.78;;;;;;;;;;5010392;28;20033;-66
2023/05/26 07:48:11;;;;;;;13.63;5.77;;;;;;;;;;5004467;28;20029;-65
2023/05/26 07:50:36;;;;;;;12.47;5.10;;;;;;;;;;5010759;28;20022;-66
2023/05/26 07:53:01;;;;;;;14.67;5.50;;;;;;;;;;5011537;28;20107;-66
2023/05/26 07:55:27;;;;;;;13.73;4.83;;;;;;;;;;5012608;28;20025;-66
2023/05/26 07:57:52;;;;;;;12.07;5.25;;;;;;;;;;5012181;28;20122;-66
2023/05/26 08:00:17;;;;;;;10.05;4.57;;;;;;;;;;5014693;28;20020;-66
2023/05/26 08:02:42;;;;;;;13.17;4.93;;;;;;;;;;5029211;28;20378;-65
2023/05/26 08:05:07;;;;;;;14.27;4.63;;;;;;;;;;5032431;28;20049;-66
2023/05/26 08:07:32;;;;;;;15.43;4.40;;;;;;;;;;5032511;28;20022;-66
2023/05/26 08:09:58;;;;;;;18.43;4.43;;;;;;;;;;5031049;28;20392;-66
2023/05/26 08:12:23;;;;;;;12.60;4.57;;;;;;;;;;5016816;28;20026;-66
2023/05/26 08:14:49;;;;;;;12.90;4.53;;;;;;;;;;5005175;28;20014;-66
2023/05/26 08:17:14;;;;;;;12.75;4.32;;;;;;;;;;4992842;28;20115;-66
2023/05/26 08:19:39;;;;;;;13.50;4.55;;;;;;;;;;4996717;28;20030;-66
2023/05/26 08:22:04;;;;;;;15.00;4.45;;;;;;;;;;5004834;28;20396;-66
2023/05/26 08:24:29;;;;;;;13.15;4.55;;;;;;;;;;5011427;28;20390;-65
2023/05/26 08:26:54;;;;;;;12.00;4.32;;;;;;;;;;5014093;28;20032;-65
2023/05/26 08:29:20;;;;;;;11.32;4.65;;;;;;;;;;5011792;28;20029;-65
2023/05/26 08:31:45;;;;;;;11.65;4.45;;;;;;;;;;5012055;28;20400;-65
2023/05/26 08:34:10;;;;;;;13.73;5.18;;;;;;;;;;5012270;28;20033;-66
2023/05/26 08:36:35;;;;;;;10.75;4.30;;;;;;;;;;5008486;28;20393;-66
2023/05/26 08:39:01;;;;;;;14.20;4.45;;;;;;;;;;5017358;28;20022;-66
2023/05/26 08:41:28;;;;;;;16.93;4.47;;;;;;;;;;5012168;28;20021;-66
2023/05/26 08:43:59;;;;;;;12.18;4.57;;;;;;;;;;5010665;28;20026;-66
2023/05/26 08:46:25;;;;;;;15.48;4.32;;;;;;;;;;5000785;28;20019;-65
2023/05/26 08:48:51;;;;;;;15.90;4.70;;;;;;;;;;4992521;28;20093;-66
2023/05/26 08:51:16;;;;;;;12.75;4.20;;;;;;;;;;5006993;28;20534;-66
2023/05/26 08:53:41;;;;;;;14.93;4.30;;;;;;;;;;5005494;28;20056;-65
2023/05/26 08:56:07;;;;;;;14.13;4.53;;;;;;;;;;4992342;28;20010;-66
2023/05/26 08:58:33;;;;;;;12.25;3.88;;;;;;;;;;4991328;28;20030;-66
2023/05/26 09:00:59;;;;;;;14.20;3.40;;;;;;;;;;4998129;28;20022;-65
2023/05/26 09:03:24;;;;;;;;;;;;;;;;;;5005837;28;20030;-66
2023/05/26 09:05:49;;;;;;;11.57;3.10;;;;;;;;;;4999780;28;19996;-66
2023/05/26 09:08:15;;;;;;;11.55;3.22;;;;;;;;;;5032064;28;20491;-66
2023/05/26 09:10:40;;;;;;;11.77;3.47;;;;;;;;;;5007052;28;20033;-66
2023/05/26 09:13:06;;;;;;;12.32;4.25;;;;;;;;;;5000624;28;20034;-66
2023/05/26 09:15:31;;;;;;;;;;;;;;;;;;5012067;28;20018;-66
2023/05/26 09:18:03;;;;;;;13.85;3.42;;;;;;;;;;5011061;28;20019;-65
2023/05/26 09:20:28;;;;;;;12.68;3.15;;;;;;;;;;5009032;28;20026;-65
2023/05/26 09:22:55;;;;;;;12.65;3.67;;;;;;;;;;5010735;28;20061;-65
2023/05/26 09:25:23;;;;;;;11.70;3.55;;;;;;;;;;5003147;28;20033;-66
2023/05/26 09:27:48;;;;;;;14.27;3.50;;;;;;;;;;5010510;28;20545;-65
2023/05/26 09:30:13;;;;;;;11.47;3.17;;;;;;;;;;5013701;28;20056;-65
2023/05/26 09:32:39;;;;;;;13.32;3.70;;;;;;;;;;5012008;28;20075;-65
2023/05/26 09:35:04;;;;;;;15.57;3.60;;;;;;;;;;5009550;28;20096;-65
2023/05/26 09:37:30;;;;;;;13.45;3.63;;;;;;;;;;5010084;28;20029;-65
2023/05/26 09:40:05;;;;;;;12.43;3.97;;;;;;;;;;4990821;28;20034;-65
2023/05/26 09:42:30;;;;;;;15.48;3.78;;;;;;;;;;4991479;28;20022;-65
2023/05/26 09:44:55;;;;;;;15.52;4.05;;;;;;;;;;4991366;28;20026;-65
2023/05/26 09:47:21;;;;;;;15.73;3.63;;;;;;;;;;4991216;28;20105;-66
2023/05/26 09:49:46;;;;;;;14.40;3.93;;;;;;;;;;5012484;28;20092;-66
2023/05/26 09:52:11;;;;;;;12.32;3.33;;;;;;;;;;5001935;28;20507;-66
2023/05/26 09:54:36;;;;;;;13.02;3.35;;;;;;;;;;4997620;28;20027;-67
2023/05/26 09:57:08;;;;;;;13.83;3.40;;;;;;;;;;4991641;28;20034;-66
2023/05/26 09:59:37;;;;;;;13.57;3.40;;;;;;;;;;4990816;28;20109;-65
2023/05/26 10:02:17;;;;;;;12.40;3.40;;;;;;;;;;4996898;28;20105;-66
2023/05/26 10:04:42;;;;;;;14.50;3.00;;;;;;;;;;5017086;28;20410;-66
2023/05/26 10:07:08;;;;;;;12.47;3.33;;;;;;;;;;4999637;28;20014;-66
2023/05/26 10:09:35;;;;;;;13.48;3.22;;;;;;;;;;4990872;28;20026;-66
2023/05/26 10:12:01;;;;;;;11.57;3.00;;;;;;;;;;4991484;28;20545;-66
2023/05/26 10:14:26;;;;;;;13.38;3.30;;;;;;;;;;4991340;28;20030;-66
2023/05/26 10:16:52;;;;;;;13.88;3.30;;;;;;;;;;5008804;28;20026;-66
2023/05/26 10:19:17;;;;;;;12.63;3.30;;;;;;;;;;5021305;28;20030;-66
2023/05/26 10:21:45;;;;;;;11.30;3.28;;;;;;;;;;4998994;28;20062;-66
2023/05/26 10:24:15;;;;;;;11.68;3.17;;;;;;;;;;4990741;28;20019;-66
2023/05/26 10:26:48;;;;;;;8.95;2.63;;;;;;;;;;4990796;28;20350;-66
2023/05/26 10:29:16;;;;;;;10.68;3.05;;;;;;;;;;5004052;28;20022;-65
2023/05/26 10:31:42;;;;;;;10.05;2.95;;;;;;;;;;5007077;28;20175;-65
2023/05/26 10:34:14;;;;;;;10.45;2.85;;;;;;;;;;5008148;28;20105;-65
2023/05/26 10:36:39;;;;;;;12.13;2.80;;;;;;;;;;5004592;28;20014;-66
2023/05/26 10:39:11;;;;;;;11.63;2.97;;;;;;;;;;4990352;28;20034;-66
2023/05/26 10:41:40;;;;;;;12.85;2.95;;;;;;;;;;4991158;28;20030;-66
2023/05/26 10:44:05;;;;;;;10.70;3.28;;;;;;;;;;4990376;28;20026;-66
2023/05/26 10:46:44;;;;;;;12.15;3.08;;;;;;;;;;4990909;28;20093;-66
2023/05/26 10:49:20;;;;;;;10.77;2.80;;;;;;;;;;5003674;28;20377;-66
2023/05/26 10:51:51;;;;;;;9.63;2.70;;;;;;;;;;5003603;28;20031;-66
2023/05/26 10:54:18;;;;;;;13.50;2.90;;;;;;;;;;5001263;28;20416;-66
2023/05/26 10:56:43;;;;;;;10.57;2.83;;;;;;;;;;5010237;28;20104;-67
2023/05/26 10:59:19;;;;;;;10.40;2.60;;;;;;;;;;5010287;28;20081;-66
2023/05/26 11:01:51;;;;;;;13.18;3.00;;;;;;;;;;5013149;28;20477;-66
2023/05/26 11:04:16;;;;;;;13.13;3.08;;;;;;;;;;5014226;28;20030;-66
2023/05/26 11:06:51;;;;;;;9.63;2.77;;;;;;;;;;5014764;28;20615;-66
2023/05/26 11:09:25;;;;;;;12.43;3.15;;;;;;;;;;5014319;28;20021;-66
2023/05/26 11:11:51;;;;;;;10.77;2.88;;;;;;;;;;5012342;28;20033;-64
2023/05/26 11:14:22;;;;;;;9.30;2.63;;;;;;;;;;5013263;28;20021;-66
2023/05/26 11:16:47;;;;;;;9.68;2.60;;;;;;;;;;5013394;28;20400;-66
2023/05/26 11:19:12;;;;;;;11.38;2.90;;;;;;;;;;5011505;28;20040;-67
2023/05/26 11:21:38;;;;;;;9.60;2.75;;;;;;;;;;5009983;28;20029;-67
2023/05/26 11:24:04;;;;;;;9.35;2.58;;;;;;;;;;5011339;28;20440;-65
2023/05/26 11:26:30;;;;;;;9.68;2.55;;;;;;;;;;5010797;28;20057;-66
2023/05/26 11:28:56;;;;;;;10.30;2.63;;;;;;;;;;5012047;28;20080;-66
2023/05/26 11:31:21;;;;;;;11.40;2.60;;;;;;;;;;5019883;28;20116;-66
2023/05/26 11:33:47;;;;;;;11.07;3.00;;;;;;;;;;5012981;28;20029;-65
2023/05/26 11:36:14;;;;;;;8.73;2.45;;;;;;;;;;5012590;28;20121;-65
2023/05/26 11:38:39;;;;;;;12.25;2.83;;;;;;;;;;5012439;28;20022;-66
2023/05/26 11:41:05;;;;;;;10.38;2.72;;;;;;;;;;5008943;28;20021;-66
2023/05/26 11:43:30;;;;;;;9.02;2.40;;;;;;;;;;5010907;28;20473;-65
2023/05/26 11:46:00;;;;;;;11.90;2.60;;;;;;;;;;5024263;28;20097;-66
2023/05/26 11:48:30;;;;;;;7.10;2.60;;;;;;;;;;5007339;28;20022;-66
2023/05/26 11:50:55;;;;;;;11.45;2.58;;;;;;;;;;5004588;28;20022;-66
2023/05/26 11:53:21;;;;;;;10.07;2.63;;;;;;;;;;5003060;28;20107;-66
2023/05/26 11:55:46;;;;;;;12.80;2.90;;;;;;;;;;4998453;28;20030;-66
2023/05/26 11:58:12;;;;;;;10.03;2.50;;;;;;;;;;5009580;28;20468;-66
2023/05/26 12:00:38;;;;;;;10.02;2.47;;;;;;;;;;5010997;28;20059;-65
2023/05/26 12:03:03;;;;;;;10.40;2.67;;;;;;;;;;5013044;28;20400;-66
2023/05/26 12:05:28;;;;;;;7.80;2.20;;;;;;;;;;5012626;28;20022;-66
2023/05/26 12:08:00;;;;;;;8.77;2.60;;;;;;;;;;5012692;28;20072;-66
2023/05/26 12:10:27;;;;;;;10.05;2.13;;;;;;;;;;5011862;28;20030;-66
2023/05/26 12:12:53;;;;;;;11.68;2.58;;;;;;;;;;5008722;28;20032;-66
2023/05/26 12:15:20;;;;;;;10.95;2.47;;;;;;;;;;5012105;28;20018;-66
2023/05/26 12:17:45;;;;;;;10.82;2.60;;;;;;;;;;5010731;28;20047;-66
2023/05/26 12:20:13;;;;;;;10.18;2.38;;;;;;;;;;5011964;28;20101;-66
2023/05/26 12:22:38;;;;;;;9.95;2.20;;;;;;;;;;5012007;28;20018;-66
2023/05/26 12:25:04;;;;;;;9.27;2.38;;;;;;;;;;5012263;28;20092;-66
2023/05/26 12:27:36;;;;;;;7.60;2.10;;;;;;;;;;5008356;28;20029;-66
2023/05/26 12:30:15;;;;;;;9.30;2.30;;;;;;;;;;4996490;28;20063;-66
2023/05/26 12:32:40;;;;;;;10.35;2.42;;;;;;;;;;5005408;28;20492;-66
2023/05/26 12:35:06;;;;;;;8.63;2.38;;;;;;;;;;5001994;28;20014;-65
2023/05/26 12:37:31;;;;;;;12.02;2.60;;;;;;;;;;5002007;28;20026;-64
2023/05/26 12:39:56;;;;;;;10.27;2.33;;;;;;;;;;5007558;28;20167;-65
2023/05/26 12:42:21;;;;;;;11.35;2.53;;;;;;;;;;5011532;28;20025;-66
2023/05/26 12:44:46;;;;;;;10.68;2.40;;;;;;;;;;5011764;28;20485;-66
2023/05/26 12:47:12;;;;;;;9.15;2.33;;;;;;;;;;5012027;28;20041;-66
2023/05/26 12:49:37;;;;;;;13.18;2.30;;;;;;;;;;5003239;28;20069;-66
2023/05/26 12:52:02;;;;;;;11.15;2.30;;;;;;;;;;4998529;28;20013;-66
2023/05/26 12:54:27;;;;;;;9.00;2.33;;;;;;;;;;5004242;28;20025;-66
2023/05/26 12:56:52;;;;;;;9.87;2.13;;;;;;;;;;5001189;28;20540;-66
2023/05/26 12:59:18;;;;;;;8.03;2.13;;;;;;;;;;5009671;28;20133;-66
2023/05/26 13:01:43;;;;;;;12.00;2.27;;;;;;;;;;5011328;28;20466;-65
2023/05/26 13:04:08;;;;;;;10.60;2.60;;;;;;;;;;5011036;28;20018;-65
2023/05/26 13:06:33;;;;;;;9.40;2.50;;;;;;;;;;4997014;28;20034;-66
2023/05/26 13:08:58;;;;;;;7.97;2.28;;;;;;;;;;4998563;28;20421;-66
2023/05/26 13:11:24;;;;;;;8.47;2.30;;;;;;;;;;4997811;28;20474;-65
2023/05/26 13:13:49;;;;;;;8.23;2.50;;;;;;;;;;5003583;28;20026;-65
2023/05/26 13:16:15;;;;;;;13.13;2.87;;;;;;;;;;5001128;28;21811;-65
2023/05/26 13:18:40;;;;;;;12.87;2.30;;;;;;;;;;4995980;28;20113;-64
2023/05/26 13:21:06;;;;;;;9.37;2.10;;;;;;;;;;5000362;28;20524;-65
2023/05/26 13:23:32;;;;;;;8.88;2.10;;;;;;;;;;4993621;28;20597;-65
2023/05/26 13:25:58;;;;;;;11.25;2.55;;;;;;;;;;4999920;28;20127;-66
2023/05/26 13:28:23;;;;;;;9.85;2.35;;;;;;;;;;4994296;28;20045;-65
2023/05/26 13:30:48;;;;;;;8.82;2.20;;;;;;;;;;5010264;28;20046;-66
2023/05/26 13:33:13;;;;;;;10.53;2.20;;;;;;;;;;5010257;28;20477;-65
2023/05/26 13:35:38;;;;;;;9.33;2.23;;;;;;;;;;5002139;28;20558;-66
2023/05/26 13:38:04;;;;;;;8.07;1.90;;;;;;;;;;5002000;28;20026;-66
2023/05/26 13:40:29;;;;;;;9.07;2.10;;;;;;;;;;5014697;28;20026;-66
2023/05/26 13:42:54;;;;;;;8.43;2.20;;;;;;;;;;5002205;28;20154;-66
2023/05/26 13:45:20;;;;;;;8.53;2.27;;;;;;;;;;4997557;28;20057;-66
2023/05/26 13:47:45;;;;;;;9.88;2.50;;;;;;;;;;5008615;28;20026;-66
2023/05/26 13:50:10;;;;;;;9.23;2.63;;;;;;;;;;5001800;28;20018;-65
2023/05/26 13:52:36;;;;;;;9.00;2.17;;;;;;;;;;4999277;28;20098;-66
2023/05/26 13:55:01;;;;;;;8.43;1.90;;;;;;;;;;5002934;28;20493;-65
2023/05/26 13:57:27;;;;;;;9.90;2.20;;;;;;;;;;4998427;28;20026;-65
2023/05/26 13:59:52;;;;;;;9.45;2.25;;;;;;;;;;5000209;28;20529;-65
2023/05/26 14:02:17;;;;;;;8.53;2.33;;;;;;;;;;4992153;28;20148;-65
2023/05/26 14:04:42;;;;;;;10.43;2.38;;;;;;;;;;5003592;28;20444;-65
2023/05/26 14:07:08;;;;;;;6.80;2.00;;;;;;;;;;5008398;28;20030;-64
2023/05/26 14:09:33;;;;;;;9.10;2.25;;;;;;;;;;4999905;28;20023;-65
2023/05/26 14:11:58;;;;;;;8.23;2.35;;;;;;;;;;5004471;28;20540;-65
2023/05/26 14:14:24;;;;;;;9.18;2.33;;;;;;;;;;5006971;28;20018;-65
2023/05/26 14:16:49;;;;;;;9.23;2.25;;;;;;;;;;5002176;28;20105;-65
2023/05/26 14:19:14;;;;;;;8.80;2.37;;;;;;;;;;4992486;28;20085;-65
2023/05/26 14:21:41;;;;;;;7.53;2.20;;;;;;;;;;5008742;28;20073;-66
2023/05/26 14:24:07;;;;;;;6.90;1.88;;;;;;;;;;5004633;28;20399;-66
2023/05/26 14:26:32;;;;;;;9.43;2.17;;;;;;;;;;5003584;28;20101;-66